createdAt,value
2023-05-18T00:01:04.210Z,80.98
2023-05-18T00:03:22.051Z,81.51
2023-05-18T00:05:39.725Z,81.96
2023-05-18T00:07:56.687Z,81.81
2023-05-18T00:10:14.425Z,81.46
2023-05-18T00:12:31.464Z,81.78
2023-05-18T00:14:49.775Z,81.89
2023-05-18T00:17:07.038Z,81.62
2023-05-18T00:19:25.125Z,81.66
2023-05-18T00:21:42.973Z,81.80
2023-05-18T00:24:00.314Z,81.77
2023-05-18T00:26:17.709Z,81.48
2023-05-18T00:28:35.014Z,81.53
2023-05-18T00:30:52.365Z,81.83
2023-05-18T00:33:09.803Z,81.82
2023-05-18T00:35:27.265Z,81.59
2023-05-18T00:37:44.652Z,82.05
2023-05-18T00:40:01.997Z,82.21
2023-05-18T00:42:19.353Z,81.88
2023-05-18T00:44:36.272Z,82.57
2023-05-18T00:46:53.629Z,82.15
2023-05-18T00:49:10.996Z,82.63
2023-05-18T00:51:28.680Z,81.82
2023-05-18T00:53:45.674Z,82.57
2023-05-18T00:56:03.081Z,82.13
2023-05-18T00:58:20.358Z,83.00
2023-05-18T01:00:37.973Z,81.99
2023-05-18T01:02:55.789Z,82.27
2023-05-18T01:05:13.153Z,83.14
2023-05-18T01:07:30.101Z,82.34
2023-05-18T01:09:47.796Z,81.98
2023-05-18T01:12:06.205Z,82.20
2023-05-18T01:14:23.254Z,82.59
2023-05-18T01:16:40.172Z,82.08
2023-05-18T01:18:57.914Z,82.84
2023-05-18T01:21:15.256Z,83.03
2023-05-18T01:23:32.670Z,82.66
2023-05-18T01:25:49.946Z,83.15
2023-05-18T01:28:07.251Z,82.74
2023-05-18T01:30:24.650Z,83.03
2023-05-18T01:32:43.023Z,83.12
2023-05-18T01:35:00.315Z,83.31
2023-05-18T01:37:17.664Z,83.42
2023-05-18T01:39:34.628Z,83.90
2023-05-18T01:41:51.587Z,83.42
2023-05-18T01:44:08.877Z,82.75
2023-05-18T01:46:26.293Z,84.09
2023-05-18T01:48:43.635Z,83.24
2023-05-18T01:51:00.579Z,83.62
2023-05-18T01:53:17.831Z,83.88
2023-05-18T01:55:37.276Z,83.61
2023-05-18T01:57:54.899Z,82.23
2023-05-18T02:00:13.333Z,83.30
2023-05-18T02:02:30.689Z,83.22
2023-05-18T02:04:48.475Z,83.14
2023-05-18T02:07:05.466Z,83.40
2023-05-18T02:09:22.813Z,83.59
2023-05-18T02:11:40.129Z,82.88
2023-05-18T02:13:57.454Z,83.50
2023-05-18T02:16:14.757Z,82.77
2023-05-18T02:18:31.795Z,82.30
2023-05-18T02:20:48.930Z,83.25
2023-05-18T02:23:06.292Z,83.35
2023-05-18T02:25:23.199Z,83.65
2023-05-18T02:27:40.258Z,83.53
2023-05-18T02:29:57.316Z,83.76
2023-05-18T02:32:15.077Z,83.35
2023-05-18T02:34:33.393Z,83.50
2023-05-18T02:36:50.728Z,84.25
2023-05-18T02:39:08.048Z,83.98
2023-05-18T02:41:25.673Z,83.04
2023-05-18T02:43:42.926Z,83.15
2023-05-18T02:46:00.257Z,84.32
2023-05-18T02:48:17.591Z,83.56
2023-05-18T02:50:35.286Z,83.29
2023-05-18T02:52:52.671Z,83.27
2023-05-18T02:55:09.653Z,82.82
2023-05-18T02:57:26.608Z,83.50
2023-05-18T02:59:43.552Z,83.14
2023-05-18T03:02:01.832Z,83.55
2023-05-18T03:04:19.237Z,83.63
2023-05-18T03:06:36.146Z,83.16
2023-05-18T03:08:53.498Z,84.47
2023-05-18T03:11:10.453Z,83.33
2023-05-18T03:13:28.724Z,84.21
2023-05-18T03:15:46.954Z,84.20
2023-05-18T03:18:05.333Z,83.09
2023-05-18T03:20:22.635Z,84.44
2023-05-18T03:22:39.646Z,83.99
2023-05-18T03:24:57.056Z,84.23
2023-05-18T03:27:14.322Z,84.04
2023-05-18T03:29:31.731Z,84.48
2023-05-18T03:31:49.601Z,84.44
2023-05-18T03:34:06.871Z,83.57
2023-05-18T03:36:23.915Z,84.65
2023-05-18T03:38:41.283Z,84.81
2023-05-18T03:40:58.649Z,84.31
2023-05-18T03:43:15.944Z,83.54
2023-05-18T03:45:33.564Z,83.75
2023-05-18T03:47:50.678Z,83.62
2023-05-18T03:50:08.458Z,83.84
2023-05-18T03:52:26.208Z,84.64
2023-05-18T03:54:43.447Z,83.87
2023-05-18T03:57:00.663Z,84.47
2023-05-18T03:59:18.027Z,84.51
2023-05-18T04:01:34.968Z,84.08
2023-05-18T04:03:52.319Z,84.58
2023-05-18T04:06:09.310Z,84.71
2023-05-18T04:08:26.732Z,84.18
2023-05-18T04:10:44.103Z,84.64
2023-05-18T04:13:01.473Z,84.11
2023-05-18T04:15:18.442Z,83.79
2023-05-18T04:17:35.492Z,83.74
2023-05-18T04:19:52.420Z,84.56
2023-05-18T04:22:09.723Z,84.50
2023-05-18T04:24:27.053Z,85.05
2023-05-18T04:26:44.355Z,85.75
2023-05-18T04:29:01.721Z,85.73
2023-05-18T04:31:19.008Z,84.74
2023-05-18T04:33:36.028Z,85.04
2023-05-18T04:35:53.439Z,85.46
2023-05-18T04:38:10.841Z,85.56
2023-05-18T04:40:28.225Z,85.22
2023-05-18T04:42:46.170Z,84.87
2023-05-18T04:45:03.464Z,85.41
2023-05-18T04:47:20.408Z,84.53
2023-05-18T04:49:37.860Z,85.20
2023-05-18T04:51:55.218Z,85.13
2023-05-18T04:54:12.544Z,84.17
2023-05-18T04:56:29.807Z,84.60
2023-05-18T04:58:47.083Z,84.16
2023-05-18T05:01:04.107Z,84.15
2023-05-18T05:03:21.263Z,84.91
2023-05-18T05:05:38.342Z,84.54
2023-05-18T05:07:56.578Z,84.92
2023-05-18T05:10:13.838Z,84.17
2023-05-18T05:12:30.840Z,85.70
2023-05-18T05:14:48.087Z,85.24
2023-05-18T05:17:05.465Z,84.81
2023-05-18T05:19:22.873Z,84.97
2023-05-18T05:21:40.355Z,84.90
2023-05-18T05:23:58.084Z,84.38
2023-05-18T05:26:16.182Z,84.27
2023-05-18T05:28:33.502Z,84.06
2023-05-18T05:30:51.834Z,82.70
2023-05-18T05:33:09.219Z,81.86
2023-05-18T05:35:26.537Z,82.62
2023-05-18T05:37:43.849Z,82.02
2023-05-18T05:40:00.865Z,81.93
2023-05-18T05:42:18.166Z,81.93
2023-05-18T05:44:36.622Z,81.50
2023-05-18T05:46:53.818Z,80.59
2023-05-18T05:49:11.138Z,80.63
2023-05-18T05:51:28.549Z,80.07
2023-05-18T05:53:46.225Z,79.57
2023-05-18T05:56:03.192Z,79.58
2023-05-18T05:58:20.571Z,79.15
2023-05-18T06:00:37.567Z,79.23
2023-05-18T06:02:54.584Z,79.26
2023-05-18T06:05:12.137Z,79.21
2023-05-18T06:07:29.512Z,78.49
2023-05-18T06:09:47.114Z,78.49
2023-05-18T06:12:04.234Z,77.77
2023-05-18T06:14:21.256Z,77.21
2023-05-18T06:16:39.614Z,77.59
2023-05-18T06:18:57.703Z,76.87
2023-05-18T06:21:15.112Z,76.81
2023-05-18T06:23:32.460Z,76.44
2023-05-18T06:25:49.800Z,75.54
2023-05-18T06:28:07.183Z,75.43
2023-05-18T06:30:25.492Z,74.96
2023-05-18T06:32:42.841Z,75.47
2023-05-18T06:35:00.203Z,74.59
2023-05-18T06:37:18.491Z,73.79
2023-05-18T06:39:36.228Z,73.78
2023-05-18T06:41:53.991Z,71.58
2023-05-18T06:44:10.979Z,71.92
2023-05-18T06:46:28.483Z,70.38
2023-05-18T06:48:45.461Z,72.05
2023-05-18T06:51:02.830Z,69.28
2023-05-18T06:53:20.832Z,70.64
2023-05-18T06:55:38.053Z,69.80
2023-05-18T06:57:55.420Z,68.96
2023-05-18T07:00:12.714Z,68.61
2023-05-18T07:02:29.687Z,67.55
2023-05-18T07:04:47.056Z,67.40
2023-05-18T07:07:04.497Z,66.12
2023-05-18T07:09:21.748Z,67.38
2023-05-18T07:11:39.100Z,64.25
2023-05-18T07:13:56.189Z,63.33
2023-05-18T07:16:13.295Z,62.65
2023-05-18T07:18:30.308Z,62.02
2023-05-18T07:20:47.634Z,59.36
2023-05-18T07:23:05.373Z,59.30
2023-05-18T07:25:22.690Z,59.43
2023-05-18T07:27:39.597Z,59.31
2023-05-18T07:29:56.523Z,59.58
2023-05-18T07:32:13.899Z,58.45
2023-05-18T07:34:30.899Z,57.56
2023-05-18T07:36:48.911Z,57.57
2023-05-18T07:39:06.236Z,56.93
2023-05-18T07:41:23.588Z,55.48
2023-05-18T07:43:40.480Z,57.87
2023-05-18T07:45:57.778Z,56.89
2023-05-18T07:48:15.183Z,57.55
2023-05-18T07:50:33.107Z,54.59
2023-05-18T07:52:50.373Z,55.19
2023-05-18T07:55:07.695Z,54.92
2023-05-18T07:57:25.004Z,54.96
2023-05-18T07:59:42.368Z,55.07
2023-05-18T08:01:59.699Z,56.99
2023-05-18T08:04:17.074Z,55.00
2023-05-18T08:06:34.791Z,54.07
2023-05-18T08:08:52.095Z,52.90
2023-05-18T08:11:09.062Z,53.70
2023-05-18T08:13:26.077Z,53.69
2023-05-18T08:15:44.477Z,51.61
2023-05-18T08:18:01.769Z,52.47
2023-05-18T08:20:18.788Z,52.59
2023-05-18T08:22:36.034Z,52.01
2023-05-18T08:24:54.025Z,49.55
2023-05-18T08:27:10.999Z,51.51
2023-05-18T08:29:28.328Z,51.19
2023-05-18T08:31:46.921Z,50.03
2023-05-18T08:34:05.318Z,50.14
2023-05-18T08:36:23.003Z,49.94
2023-05-18T08:38:40.375Z,51.48
2023-05-18T08:40:57.708Z,50.41
2023-05-18T08:43:15.497Z,50.51
2023-05-18T08:45:33.362Z,49.57
2023-05-18T08:47:50.954Z,48.88
2023-05-18T08:50:08.279Z,49.91
2023-05-18T08:52:25.585Z,49.42
2023-05-18T08:54:42.931Z,48.47
2023-05-18T08:57:01.744Z,48.07
2023-05-18T08:59:19.163Z,49.65
2023-05-18T09:01:36.243Z,46.98
2023-05-18T09:03:53.601Z,47.49
2023-05-18T09:06:10.587Z,48.58
2023-05-18T09:08:30.390Z,44.39
2023-05-18T09:10:47.733Z,45.06
2023-05-18T09:13:04.695Z,46.07
2023-05-18T09:15:21.991Z,46.95
2023-05-18T09:17:39.038Z,47.33
2023-05-18T09:19:56.130Z,46.46
2023-05-18T09:22:13.069Z,46.38
2023-05-18T09:24:30.244Z,45.16
2023-05-18T09:26:47.864Z,46.18
2023-05-18T09:29:05.301Z,44.87
2023-05-18T09:31:22.328Z,44.83
2023-05-18T09:33:39.458Z,45.92
2023-05-18T09:35:56.469Z,48.17
2023-05-18T09:38:14.779Z,44.83
2023-05-18T09:40:31.725Z,44.04
2023-05-18T09:42:48.686Z,44.66
2023-05-18T09:45:05.627Z,44.83
2023-05-18T09:47:23.074Z,43.66
2023-05-18T09:49:40.419Z,44.04
2023-05-18T09:51:57.397Z,42.98
2023-05-18T09:54:16.758Z,45.16
2023-05-18T09:56:34.146Z,44.34
2023-05-18T09:58:51.445Z,43.02
2023-05-18T10:01:08.888Z,44.06
2023-05-18T10:03:26.324Z,41.66
2023-05-18T10:05:43.617Z,43.33
2023-05-18T10:08:00.927Z,43.94
2023-05-18T10:10:18.586Z,44.09
2023-05-18T10:12:35.902Z,42.55
2023-05-18T10:14:53.249Z,40.09
2023-05-18T10:17:15.636Z,39.94
2023-05-18T10:19:33.855Z,42.70
2023-05-18T10:21:51.104Z,41.07
2023-05-18T10:24:08.574Z,39.30
2023-05-18T10:26:25.951Z,39.27
2023-05-18T10:28:43.435Z,39.94
2023-05-18T10:31:00.838Z,41.23
2023-05-18T10:33:28.605Z,38.26
2023-05-18T10:35:47.139Z,38.93
2023-05-18T10:38:04.755Z,39.93
2023-05-18T10:40:21.827Z,38.99
2023-05-18T10:42:39.166Z,40.23
2023-05-18T10:44:56.844Z,37.85
2023-05-18T10:47:14.250Z,41.41
2023-05-18T10:49:31.264Z,39.96
2023-05-18T10:51:48.735Z,39.13
2023-05-18T10:54:06.491Z,39.55
2023-05-18T10:56:23.842Z,40.39
2023-05-18T10:58:40.763Z,39.61
2023-05-18T11:00:57.747Z,39.81
2023-05-18T11:03:14.819Z,39.23
2023-05-18T11:05:32.237Z,41.22
2023-05-18T11:07:49.601Z,40.98
2023-05-18T11:10:07.355Z,38.11
2023-05-18T11:12:24.714Z,40.06
2023-05-18T11:14:42.081Z,40.08
2023-05-18T11:16:59.424Z,38.55
2023-05-18T11:19:16.446Z,40.53
2023-05-18T11:21:33.824Z,39.55
2023-05-18T11:23:51.174Z,38.65
2023-05-18T11:26:08.541Z,38.23
2023-05-18T11:28:25.546Z,37.01
2023-05-18T11:30:42.600Z,39.21
2023-05-18T11:33:00.039Z,40.22
2023-05-18T11:35:17.462Z,39.69
2023-05-18T11:37:34.763Z,40.13
2023-05-18T11:39:59.345Z,40.28
2023-05-18T11:42:17.558Z,38.80
2023-05-18T11:44:34.906Z,39.39
2023-05-18T11:46:52.307Z,38.64
2023-05-18T11:49:09.805Z,38.51
2023-05-18T11:51:26.894Z,38.52
2023-05-18T11:53:44.243Z,38.99
2023-05-18T11:56:01.172Z,39.77
2023-05-18T11:58:18.432Z,37.95
2023-05-18T12:00:35.474Z,37.09
2023-05-18T12:02:53.210Z,37.12
2023-05-18T12:05:10.424Z,38.04
2023-05-18T12:07:28.714Z,37.53
2023-05-18T12:09:45.964Z,38.70
2023-05-18T12:12:04.412Z,37.37
2023-05-18T12:14:24.756Z,36.66
2023-05-18T12:16:42.103Z,36.34
2023-05-18T12:18:59.465Z,36.32
2023-05-18T12:21:16.816Z,36.97
2023-05-18T12:23:33.962Z,38.69
2023-05-18T12:25:51.345Z,38.32
2023-05-18T12:28:08.320Z,38.39
2023-05-18T12:30:25.686Z,37.79
2023-05-18T12:32:43.115Z,37.04
2023-05-18T12:35:00.616Z,38.87
2023-05-18T12:37:17.597Z,38.22
2023-05-18T12:39:34.911Z,38.60
2023-05-18T12:41:51.934Z,37.27
2023-05-18T12:44:09.306Z,38.83
2023-05-18T12:46:26.827Z,37.32
2023-05-18T12:48:44.140Z,36.50
2023-05-18T12:51:01.264Z,38.46
2023-05-18T12:53:18.599Z,40.23
2023-05-18T12:55:36.517Z,37.69
2023-05-18T12:57:53.457Z,37.38
2023-05-18T13:00:10.574Z,37.81
2023-05-18T13:02:27.786Z,37.50
2023-05-18T13:04:45.252Z,38.03
2023-05-18T13:07:02.225Z,36.35
2023-05-18T13:09:19.161Z,38.83
2023-05-18T13:11:36.500Z,36.80
2023-05-18T13:13:53.997Z,35.50
2023-05-18T13:16:11.624Z,38.32
2023-05-18T13:18:28.657Z,38.76
2023-05-18T13:20:45.651Z,35.07
2023-05-18T13:23:02.766Z,37.09
2023-05-18T13:25:20.160Z,39.56
2023-05-18T13:27:38.298Z,39.94
2023-05-18T13:29:55.256Z,36.11
2023-05-18T13:32:13.670Z,36.26
2023-05-18T13:34:31.076Z,37.96
2023-05-18T13:36:48.074Z,38.27
2023-05-18T13:39:05.875Z,36.95
2023-05-18T13:41:22.848Z,36.43
2023-05-18T13:43:39.850Z,38.90
2023-05-18T13:45:56.843Z,37.93
2023-05-18T13:48:14.193Z,36.78
2023-05-18T13:50:33.785Z,38.63
2023-05-18T13:52:51.171Z,38.18
2023-05-18T13:55:09.023Z,37.54
2023-05-18T13:57:27.265Z,38.29
2023-05-18T13:59:44.531Z,37.05
2023-05-18T14:02:02.020Z,36.16
2023-05-18T14:04:19.007Z,38.53
2023-05-18T14:06:36.226Z,38.65
2023-05-18T14:08:53.532Z,38.49
2023-05-18T14:11:10.435Z,38.12
2023-05-18T14:13:27.568Z,35.74
2023-05-18T14:15:44.576Z,37.41
2023-05-18T14:18:02.042Z,37.83
2023-05-18T14:20:19.420Z,38.82
2023-05-18T14:22:36.729Z,37.74
2023-05-18T14:24:54.020Z,36.09
2023-05-18T14:27:11.321Z,37.79
2023-05-18T14:29:29.575Z,37.63
2023-05-18T14:31:46.575Z,36.66
2023-05-18T14:34:03.557Z,36.48
2023-05-18T14:36:22.194Z,37.09
2023-05-18T14:38:39.743Z,38.07
2023-05-18T14:40:57.111Z,36.89
2023-05-18T14:43:14.850Z,37.29
2023-05-18T14:45:32.168Z,39.19
2023-05-18T14:47:49.133Z,38.20
2023-05-18T14:50:06.827Z,37.46
2023-05-18T14:52:24.163Z,36.38
2023-05-18T14:54:41.445Z,37.62
2023-05-18T14:56:58.523Z,37.29
2023-05-18T14:59:15.951Z,36.59
2023-05-18T15:01:33.332Z,36.00
2023-05-18T15:03:50.648Z,37.08
2023-05-18T15:06:09.153Z,38.17
2023-05-18T15:08:26.496Z,37.95
2023-05-18T15:10:43.799Z,37.83
2023-05-18T15:13:01.224Z,38.80
2023-05-18T15:15:18.918Z,38.82
2023-05-18T15:17:36.041Z,37.85
2023-05-18T15:19:55.404Z,38.35
2023-05-18T15:22:13.770Z,38.21
2023-05-18T15:24:31.038Z,37.98
2023-05-18T15:26:48.145Z,38.71
2023-05-18T15:29:07.757Z,37.05
2023-05-18T15:31:25.098Z,38.76
2023-05-18T15:33:42.143Z,36.85
2023-05-18T15:35:59.272Z,38.98
2023-05-18T15:38:16.579Z,39.34
2023-05-18T15:40:34.060Z,38.05
2023-05-18T15:42:51.155Z,39.29
2023-05-18T15:45:08.465Z,39.12
2023-05-18T15:47:25.587Z,39.46
2023-05-18T15:49:42.798Z,39.36
2023-05-18T15:52:00.137Z,39.69
2023-05-18T15:54:17.497Z,38.53
2023-05-18T15:56:34.511Z,36.82
2023-05-18T15:58:51.610Z,37.63
2023-05-18T16:01:08.949Z,37.75
2023-05-18T16:03:26.461Z,38.27
2023-05-18T16:05:43.735Z,37.56
2023-05-18T16:08:02.271Z,38.96
2023-05-18T16:10:21.281Z,36.89
2023-05-18T16:12:39.091Z,38.61
2023-05-18T16:14:56.002Z,39.39
2023-05-18T16:17:13.431Z,38.28
2023-05-18T16:19:32.947Z,38.21
2023-05-18T16:21:50.388Z,38.36
2023-05-18T16:24:07.675Z,38.20
2023-05-18T16:26:25.076Z,38.96
2023-05-18T16:28:42.456Z,38.06
2023-05-18T16:30:59.859Z,38.24
2023-05-18T16:33:17.268Z,38.75
2023-05-18T16:35:34.213Z,38.11
2023-05-18T16:37:51.784Z,39.58
2023-05-18T16:40:08.745Z,38.13
2023-05-18T16:42:25.729Z,38.72
2023-05-18T16:44:43.072Z,38.28
2023-05-18T16:47:00.080Z,38.89
2023-05-18T16:49:17.437Z,39.04
2023-05-18T16:51:34.774Z,39.76
2023-05-18T16:53:52.111Z,40.79
2023-05-18T16:56:09.331Z,40.41
2023-05-18T16:58:26.700Z,39.32
2023-05-18T17:00:44.060Z,40.71
2023-05-18T17:03:01.360Z,42.89
2023-05-18T17:05:18.735Z,43.10
2023-05-18T17:07:36.121Z,39.84
2023-05-18T17:09:53.267Z,40.01
2023-05-18T17:12:10.650Z,41.87
2023-05-18T17:14:27.960Z,41.40
2023-05-18T17:16:45.350Z,42.39
2023-05-18T17:19:02.766Z,43.72
2023-05-18T17:21:19.760Z,42.61
2023-05-18T17:23:36.920Z,41.88
2023-05-18T17:26:00.868Z,43.67
2023-05-18T17:28:23.026Z,43.63
2023-05-18T17:30:40.396Z,44.73
2023-05-18T17:32:58.569Z,42.20
2023-05-18T17:35:18.085Z,43.96
2023-05-18T17:37:35.540Z,43.69
2023-05-18T17:39:52.894Z,44.69
2023-05-18T17:42:09.866Z,45.71
2023-05-18T17:44:27.267Z,45.91
2023-05-18T17:46:44.776Z,45.69
2023-05-18T17:49:02.148Z,45.21
2023-05-18T17:51:19.135Z,45.81
2023-05-18T17:53:36.426Z,44.74
2023-05-18T17:55:53.723Z,45.98
2023-05-18T17:58:11.732Z,46.17
2023-05-18T18:00:29.064Z,46.62
2023-05-18T18:02:47.236Z,46.65
2023-05-18T18:05:04.655Z,46.51
2023-05-18T18:07:21.603Z,45.88
2023-05-18T18:09:39.280Z,45.95
2023-05-18T18:11:56.488Z,46.96
2023-05-18T18:14:13.576Z,46.65
2023-05-18T18:16:31.660Z,46.34
2023-05-18T18:18:48.737Z,47.03
2023-05-18T18:21:05.766Z,48.51
2023-05-18T18:23:22.759Z,48.74
2023-05-18T18:25:40.092Z,48.38
2023-05-18T18:27:58.187Z,50.17
2023-05-18T18:30:16.538Z,50.42
2023-05-18T18:32:35.971Z,51.25
2023-05-18T18:34:55.391Z,51.67
2023-05-18T18:37:13.588Z,52.60
2023-05-18T18:39:32.811Z,53.63
2023-05-18T18:41:50.168Z,53.65
2023-05-18T18:44:07.655Z,54.55
2023-05-18T18:46:25.263Z,55.28
2023-05-18T18:48:42.690Z,55.81
2023-05-18T18:51:01.078Z,55.92
2023-05-18T18:53:20.331Z,56.53
2023-05-18T18:55:37.331Z,56.26
2023-05-18T18:57:54.647Z,56.98
2023-05-18T19:00:11.949Z,59.21
2023-05-18T19:02:28.988Z,58.84
2023-05-18T19:04:46.052Z,58.85
2023-05-18T19:07:03.344Z,59.05
2023-05-18T19:09:20.948Z,58.47
2023-05-18T19:11:37.920Z,59.34
2023-05-18T19:13:54.908Z,59.52
2023-05-18T19:16:11.930Z,60.64
2023-05-18T19:18:29.252Z,62.19
2023-05-18T19:20:46.766Z,60.59
2023-05-18T19:23:04.937Z,62.09
2023-05-18T19:25:22.326Z,61.70
2023-05-18T19:27:39.614Z,63.51
2023-05-18T19:29:57.420Z,63.38
2023-05-18T19:32:14.342Z,63.63
2023-05-18T19:34:31.370Z,64.55
2023-05-18T19:36:48.740Z,63.73
2023-05-18T19:39:06.019Z,64.28
2023-05-18T19:41:24.864Z,64.13
2023-05-18T19:43:42.077Z,64.57
2023-05-18T19:45:59.106Z,65.06
2023-05-18T19:48:16.519Z,65.18
2023-05-18T19:50:33.441Z,66.24
2023-05-18T19:52:51.719Z,67.56
2023-05-18T19:55:09.064Z,66.83
2023-05-18T19:57:26.649Z,67.58
2023-05-18T19:59:43.947Z,67.71
2023-05-18T20:02:01.288Z,68.20
2023-05-18T20:04:18.723Z,68.81
2023-05-18T20:06:36.809Z,69.84
2023-05-18T20:08:53.751Z,70.69
2023-05-18T20:11:13.860Z,70.48
2023-05-18T20:13:31.118Z,69.68
2023-05-18T20:15:48.572Z,69.69
2023-05-18T20:18:07.011Z,69.64
2023-05-18T20:20:24.531Z,69.81
2023-05-18T20:22:42.837Z,70.51
2023-05-18T20:24:59.928Z,69.96
2023-05-18T20:27:17.869Z,70.19
2023-05-18T20:29:36.003Z,70.60
2023-05-18T20:31:54.080Z,70.95
2023-05-18T20:34:11.515Z,71.18
2023-05-18T20:36:28.869Z,71.96
2023-05-18T20:38:45.887Z,71.47
2023-05-18T20:41:04.490Z,72.13
2023-05-18T20:43:21.754Z,72.05
2023-05-18T20:45:39.078Z,72.99
2023-05-18T20:47:56.424Z,71.93
2023-05-18T20:50:13.789Z,72.72
2023-05-18T20:52:31.029Z,72.85
2023-05-18T20:54:48.384Z,73.34
2023-05-18T20:57:05.549Z,73.23
2023-05-18T20:59:22.977Z,73.95
2023-05-18T21:01:40.143Z,73.51
2023-05-18T21:03:57.670Z,73.41
2023-05-18T21:06:15.752Z,73.48
2023-05-18T21:08:32.870Z,73.29
2023-05-18T21:10:49.852Z,73.31
2023-05-18T21:13:06.977Z,73.63
2023-05-18T21:15:24.267Z,74.29
2023-05-18T21:17:41.228Z,74.24
2023-05-18T21:19:58.422Z,74.17
2023-05-18T21:22:15.529Z,75.48
2023-05-18T21:24:32.637Z,76.02
2023-05-18T21:26:49.882Z,76.11
2023-05-18T21:29:07.155Z,76.43
2023-05-18T21:31:25.194Z,75.78
2023-05-18T21:33:42.616Z,76.26
2023-05-18T21:36:00.039Z,75.98
2023-05-18T21:38:17.355Z,76.59
2023-05-18T21:40:34.812Z,75.74
2023-05-18T21:42:52.588Z,76.41
2023-05-18T21:45:09.836Z,75.68
2023-05-18T21:47:26.854Z,76.12
2023-05-18T21:49:44.199Z,76.92
2023-05-18T21:52:01.537Z,76.97
2023-05-18T21:54:19.636Z,76.23
2023-05-18T21:56:36.614Z,75.81
2023-05-18T21:58:53.605Z,76.24
2023-05-18T22:01:10.674Z,76.82
2023-05-18T22:03:27.631Z,77.05
2023-05-18T22:05:44.548Z,76.95
2023-05-18T22:08:02.500Z,77.11
2023-05-18T22:10:19.425Z,77.30
2023-05-18T22:12:36.431Z,78.58
2023-05-18T22:14:53.960Z,78.42
2023-05-18T22:17:10.967Z,77.58
2023-05-18T22:19:28.454Z,77.34
2023-05-18T22:21:45.753Z,78.22
2023-05-18T22:24:03.024Z,79.27
2023-05-18T22:26:19.975Z,77.68
2023-05-18T22:28:37.317Z,78.75
2023-05-18T22:30:54.306Z,77.37
2023-05-18T22:33:11.323Z,77.79
2023-05-18T22:35:29.671Z,77.79
2023-05-18T22:37:47.018Z,78.23
2023-05-18T22:40:04.275Z,79.44
2023-05-18T22:42:21.442Z,78.76
2023-05-18T22:44:38.719Z,78.71
2023-05-18T22:46:55.946Z,80.01
2023-05-18T22:49:13.064Z,78.49
2023-05-18T22:51:30.315Z,79.04
2023-05-18T22:53:47.589Z,79.16
2023-05-18T22:56:04.899Z,80.14
2023-05-18T22:58:22.199Z,80.00
2023-05-18T23:00:40.528Z,79.55
2023-05-18T23:02:57.507Z,79.28
2023-05-18T23:05:14.579Z,79.72
2023-05-18T23:07:32.153Z,79.76
2023-05-18T23:09:50.542Z,79.97
2023-05-18T23:12:07.525Z,79.28
2023-05-18T23:14:25.090Z,79.52
2023-05-18T23:16:42.727Z,79.54
2023-05-18T23:19:00.137Z,79.92
2023-05-18T23:21:17.136Z,80.06
2023-05-18T23:23:34.228Z,80.33
2023-05-18T23:25:51.670Z,80.76
2023-05-18T23:28:08.974Z,80.92
2023-05-18T23:30:26.304Z,81.43
2023-05-18T23:32:43.467Z,80.19
2023-05-18T23:35:00.850Z,80.26
2023-05-18T23:37:18.134Z,80.70
2023-05-18T23:39:35.226Z,80.97
2023-05-18T23:41:52.225Z,81.55
2023-05-18T23:44:09.268Z,81.50
2023-05-18T23:46:26.720Z,81.71
2023-05-18T23:48:43.825Z,81.98
2023-05-18T23:51:02.229Z,81.55
2023-05-18T23:53:19.602Z,81.68
2023-05-18T23:55:36.859Z,81.78
2023-05-18T23:57:53.821Z,81.80
